sensor_id;sensor_type;location;lat;lon;timestamp;P1;durP1;ratioP1;P2;durP2;ratioP2
77040;SDS011;65974;42.664;23.264;2023-02-20T00:01:54;13.48;;;7.95;;
77040;SDS011;65974;42.664;23.264;2023-02-20T00:04:20;10.27;;;5.40;;
77040;SDS011;65974;42.664;23.264;2023-02-20T00:06:46;14.60;;;7.88;;
77040;SDS011;65974;42.664;23.264;2023-02-20T00:09:12;13.63;;;8.02;;
77040;SDS011;65974;42.664;23.264;2023-02-20T00:11:37;13.40;;;7.55;;
77040;SDS011;65974;42.664;23.264;2023-02-20T00:14:02;11.02;;;6.88;;
77040;SDS011;65974;42.664;23.264;2023-02-20T00:16:28;12.07;;;6.85;;
77040;SDS011;65974;42.664;23.264;2023-02-20T00:18:53;13.15;;;8.25;;
77040;SDS011;65974;42.664;23.264;2023-02-20T00:21:19;9.63;;;6.05;;
77040;SDS011;65974;42.664;23.264;2023-02-20T00:23:44;12.38;;;8.10;;
77040;SDS011;65974;42.664;23.264;2023-02-20T00:26:10;12.63;;;7.22;;
77040;SDS011;65974;42.664;23.264;2023-02-20T00:28:41;14.45;;;8.35;;
77040;SDS011;65974;42.664;23.264;2023-02-20T00:31:07;16.70;;;9.05;;
77040;SDS011;65974;42.664;23.264;2023-02-20T00:33:36;10.77;;;6.78;;
77040;SDS011;65974;42.664;23.264;2023-02-20T00:36:02;13.40;;;7.88;;
77040;SDS011;65974;42.664;23.264;2023-02-20T00:38:28;11.43;;;7.43;;
77040;SDS011;65974;42.664;23.264;2023-02-20T00:40:53;13.15;;;7.82;;
77040;SDS011;65974;42.664;23.264;2023-02-20T00:43:19;11.13;;;7.75;;
77040;SDS011;65974;42.664;23.264;2023-02-20T00:45:44;12.20;;;6.53;;
77040;SDS011;65974;42.664;23.264;2023-02-20T00:48:10;13.07;;;7.13;;
77040;SDS011;65974;42.664;23.264;2023-02-20T00:50:35;12.02;;;6.40;;
77040;SDS011;65974;42.664;23.264;2023-02-20T00:53:00;10.38;;;7.00;;
77040;SDS011;65974;42.664;23.264;2023-02-20T00:55:27;11.98;;;6.65;;
77040;SDS011;65974;42.664;23.264;2023-02-20T00:57:53;9.13;;;5.60;;
77040;SDS011;65974;42.664;23.264;2023-02-20T01:00:24;9.60;;;6.43;;
77040;SDS011;65974;42.664;23.264;2023-02-20T01:02:51;7.28;;;5.90;;
77040;SDS011;65974;42.664;23.264;2023-02-20T01:05:17;10.73;;;6.80;;
77040;SDS011;65974;42.664;23.264;2023-02-20T01:07:44;11.52;;;7.00;;
77040;SDS011;65974;42.664;23.264;2023-02-20T01:10:10;10.65;;;6.32;;
77040;SDS011;65974;42.664;23.264;2023-02-20T01:12:36;12.90;;;6.78;;
77040;SDS011;65974;42.664;23.264;2023-02-20T01:15:03;9.82;;;6.85;;
77040;SDS011;65974;42.664;23.264;2023-02-20T01:17:29;13.65;;;7.57;;
77040;SDS011;65974;42.664;23.264;2023-02-20T01:19:54;12.20;;;8.50;;
77040;SDS011;65974;42.664;23.264;2023-02-20T01:22:20;15.00;;;9.48;;
77040;SDS011;65974;42.664;23.264;2023-02-20T01:24:46;13.60;;;7.65;;
77040;SDS011;65974;42.664;23.264;2023-02-20T01:27:11;12.73;;;7.40;;
77040;SDS011;65974;42.664;23.264;2023-02-20T01:29:37;11.13;;;8.48;;
77040;SDS011;65974;42.664;23.264;2023-02-20T01:32:02;12.98;;;6.78;;
77040;SDS011;65974;42.664;23.264;2023-02-20T01:34:28;13.48;;;7.80;;
77040;SDS011;65974;42.664;23.264;2023-02-20T01:36:54;12.88;;;9.07;;
77040;SDS011;65974;42.664;23.264;2023-02-20T01:39:23;9.18;;;5.75;;
77040;SDS011;65974;42.664;23.264;2023-02-20T01:41:52;11.38;;;7.07;;
77040;SDS011;65974;42.664;23.264;2023-02-20T01:44:21;11.98;;;8.30;;
77040;SDS011;65974;42.664;23.264;2023-02-20T01:47:06;12.38;;;7.10;;
77040;SDS011;65974;42.664;23.264;2023-02-20T01:54:37;21.98;;;8.70;;
77040;SDS011;65974;42.664;23.264;2023-02-20T01:57:05;12.43;;;8.90;;
77040;SDS011;65974;42.664;23.264;2023-02-20T01:59:36;10.75;;;6.85;;
77040;SDS011;65974;42.664;23.264;2023-02-20T02:02:04;11.75;;;7.10;;
77040;SDS011;65974;42.664;23.264;2023-02-20T02:04:30;6.25;;;5.28;;
77040;SDS011;65974;42.664;23.264;2023-02-20T02:06:58;13.73;;;7.68;;
77040;SDS011;65974;42.664;23.264;2023-02-20T02:12:03;9.77;;;4.35;;
77040;SDS011;65974;42.664;23.264;2023-02-20T02:14:28;6.50;;;4.45;;
77040;SDS011;65974;42.664;23.264;2023-02-20T02:17:10;7.32;;;4.80;;
77040;SDS011;65974;42.664;23.264;2023-02-20T02:20:16;7.65;;;4.22;;
77040;SDS011;65974;42.664;23.264;2023-02-20T02:40:12;6.55;;;2.85;;
77040;SDS011;65974;42.664;23.264;2023-02-20T02:42:42;4.47;;;2.97;;
77040;SDS011;65974;42.664;23.264;2023-02-20T02:50:59;4.85;;;2.78;;
77040;SDS011;65974;42.664;23.264;2023-02-20T02:53:35;4.70;;;2.55;;
77040;SDS011;65974;42.664;23.264;2023-02-20T02:56:00;4.00;;;3.35;;
77040;SDS011;65974;42.664;23.264;2023-02-20T02:58:45;3.97;;;2.80;;
77040;SDS011;65974;42.664;23.264;2023-02-20T03:01:12;4.75;;;2.42;;
77040;SDS011;65974;42.664;23.264;2023-02-20T03:03:41;4.50;;;2.88;;
77040;SDS011;65974;42.664;23.264;2023-02-20T03:06:26;4.15;;;2.70;;
77040;SDS011;65974;42.664;23.264;2023-02-20T03:09:00;2.92;;;1.50;;
77040;SDS011;65974;42.664;23.264;2023-02-20T03:11:30;3.28;;;2.17;;
77040;SDS011;65974;42.664;23.264;2023-02-20T03:17:23;5.25;;;2.63;;
77040;SDS011;65974;42.664;23.264;2023-02-20T03:19:55;4.18;;;2.20;;
77040;SDS011;65974;42.664;23.264;2023-02-20T03:22:36;2.00;;;1.35;;
77040;SDS011;65974;42.664;23.264;2023-02-20T03:25:15;3.83;;;1.98;;
77040;SDS011;65974;42.664;23.264;2023-02-20T03:27:53;3.42;;;2.83;;
77040;SDS011;65974;42.664;23.264;2023-02-20T03:33:04;3.72;;;2.22;;
77040;SDS011;65974;42.664;23.264;2023-02-20T03:35:54;3.35;;;2.53;;
77040;SDS011;65974;42.664;23.264;2023-02-20T03:38:42;4.32;;;2.50;;
77040;SDS011;65974;42.664;23.264;2023-02-20T03:41:33;22.88;;;10.07;;
77040;SDS011;65974;42.664;23.264;2023-02-20T03:44:19;3.53;;;2.33;;
77040;SDS011;65974;42.664;23.264;2023-02-20T03:46:46;4.72;;;2.13;;
77040;SDS011;65974;42.664;23.264;2023-02-20T03:49:16;3.42;;;2.13;;
77040;SDS011;65974;42.664;23.264;2023-02-20T03:51:45;3.67;;;2.60;;
77040;SDS011;65974;42.664;23.264;2023-02-20T03:54:11;2.40;;;2.13;;
77040;SDS011;65974;42.664;23.264;2023-02-20T03:56:38;3.33;;;2.08;;
77040;SDS011;65974;42.664;23.264;2023-02-20T03:59:09;5.45;;;2.65;;
77040;SDS011;65974;42.664;23.264;2023-02-20T04:01:40;2.65;;;2.40;;
77040;SDS011;65974;42.664;23.264;2023-02-20T04:06:36;2.28;;;1.77;;
77040;SDS011;65974;42.664;23.264;2023-02-20T04:09:05;2.90;;;2.13;;
77040;SDS011;65974;42.664;23.264;2023-02-20T04:11:37;4.45;;;2.33;;
77040;SDS011;65974;42.664;23.264;2023-02-20T04:14:24;4.60;;;2.40;;
77040;SDS011;65974;42.664;23.264;2023-02-20T04:19:20;3.00;;;1.90;;
77040;SDS011;65974;42.664;23.264;2023-02-20T04:21:49;3.20;;;1.65;;
77040;SDS011;65974;42.664;23.264;2023-02-20T04:24:38;3.30;;;2.53;;
77040;SDS011;65974;42.664;23.264;2023-02-20T04:27:18;1.75;;;1.35;;
77040;SDS011;65974;42.664;23.264;2023-02-20T04:29:44;3.22;;;2.03;;
77040;SDS011;65974;42.664;23.264;2023-02-20T04:32:10;2.38;;;1.60;;
77040;SDS011;65974;42.664;23.264;2023-02-20T04:34:36;3.33;;;2.13;;
77040;SDS011;65974;42.664;23.264;2023-02-20T04:37:06;13.27;;;3.45;;
77040;SDS011;65974;42.664;23.264;2023-02-20T04:39:34;2.67;;;2.25;;
77040;SDS011;65974;42.664;23.264;2023-02-20T04:42:00;3.72;;;2.45;;
77040;SDS011;65974;42.664;23.264;2023-02-20T04:44:25;2.53;;;1.90;;
77040;SDS011;65974;42.664;23.264;2023-02-20T04:46:58;3.05;;;2.05;;
77040;SDS011;65974;42.664;23.264;2023-02-20T04:49:24;6.22;;;2.50;;
77040;SDS011;65974;42.664;23.264;2023-02-20T04:51:50;2.00;;;1.40;;
77040;SDS011;65974;42.664;23.264;2023-02-20T04:54:15;2.53;;;1.85;;
77040;SDS011;65974;42.664;23.264;2023-02-20T04:56:40;4.40;;;2.92;;
77040;SDS011;65974;42.664;23.264;2023-02-20T04:59:06;7.13;;;5.32;;
77040;SDS011;65974;42.664;23.264;2023-02-20T05:01:31;4.63;;;3.67;;
77040;SDS011;65974;42.664;23.264;2023-02-20T05:03:57;3.28;;;2.17;;
77040;SDS011;65974;42.664;23.264;2023-02-20T05:06:22;5.55;;;2.75;;
77040;SDS011;65974;42.664;23.264;2023-02-20T05:08:48;3.30;;;2.33;;
77040;SDS011;65974;42.664;23.264;2023-02-20T05:11:13;6.40;;;2.28;;
77040;SDS011;65974;42.664;23.264;2023-02-20T05:13:39;2.22;;;2.03;;
77040;SDS011;65974;42.664;23.264;2023-02-20T05:16:04;2.22;;;1.70;;
77040;SDS011;65974;42.664;23.264;2023-02-20T05:18:30;2.70;;;1.55;;
77040;SDS011;65974;42.664;23.264;2023-02-20T05:20:57;3.63;;;2.30;;
77040;SDS011;65974;42.664;23.264;2023-02-20T05:23:41;3.22;;;1.80;;
77040;SDS011;65974;42.664;23.264;2023-02-20T05:26:10;3.10;;;1.92;;
77040;SDS011;65974;42.664;23.264;2023-02-20T05:28:36;3.97;;;2.38;;
77040;SDS011;65974;42.664;23.264;2023-02-20T05:31:03;3.63;;;2.50;;
77040;SDS011;65974;42.664;23.264;2023-02-20T05:33:29;12.35;;;5.50;;
77040;SDS011;65974;42.664;23.264;2023-02-20T05:35:54;4.28;;;3.20;;
77040;SDS011;65974;42.664;23.264;2023-02-20T05:38:20;5.85;;;2.92;;
77040;SDS011;65974;42.664;23.264;2023-02-20T05:40:45;7.22;;;3.47;;
77040;SDS011;65974;42.664;23.264;2023-02-20T05:43:11;2.75;;;2.17;;
77040;SDS011;65974;42.664;23.264;2023-02-20T05:45:36;5.68;;;4.30;;
77040;SDS011;65974;42.664;23.264;2023-02-20T05:48:01;4.88;;;3.50;;
77040;SDS011;65974;42.664;23.264;2023-02-20T05:50:27;5.97;;;3.65;;
77040;SDS011;65974;42.664;23.264;2023-02-20T05:52:52;8.25;;;4.50;;
77040;SDS011;65974;42.664;23.264;2023-02-20T05:55:18;5.93;;;4.15;;
77040;SDS011;65974;42.664;23.264;2023-02-20T05:57:43;5.88;;;3.13;;
77040;SDS011;65974;42.664;23.264;2023-02-20T06:00:09;4.00;;;1.77;;
77040;SDS011;65974;42.664;23.264;2023-02-20T06:02:35;3.20;;;1.98;;
77040;SDS011;65974;42.664;23.264;2023-02-20T06:05:01;3.28;;;2.88;;
77040;SDS011;65974;42.664;23.264;2023-02-20T06:07:29;3.75;;;3.45;;
77040;SDS011;65974;42.664;23.264;2023-02-20T06:09:55;3.25;;;2.47;;
77040;SDS011;65974;42.664;23.264;2023-02-20T06:12:21;4.45;;;2.67;;
77040;SDS011;65974;42.664;23.264;2023-02-20T06:14:46;3.47;;;2.33;;
77040;SDS011;65974;42.664;23.264;2023-02-20T06:17:12;4.43;;;3.05;;
77040;SDS011;65974;42.664;23.264;2023-02-20T06:19:37;4.80;;;2.78;;
77040;SDS011;65974;42.664;23.264;2023-02-20T06:22:03;5.30;;;2.53;;
77040;SDS011;65974;42.664;23.264;2023-02-20T06:24:28;5.53;;;3.15;;
77040;SDS011;65974;42.664;23.264;2023-02-20T06:26:53;6.68;;;3.65;;
77040;SDS011;65974;42.664;23.264;2023-02-20T06:29:19;27.80;;;10.77;;
77040;SDS011;65974;42.664;23.264;2023-02-20T06:31:45;3.30;;;2.58;;
77040;SDS011;65974;42.664;23.264;2023-02-20T06:34:10;4.28;;;2.80;;
77040;SDS011;65974;42.664;23.264;2023-02-20T06:36:37;5.05;;;3.70;;
77040;SDS011;65974;42.664;23.264;2023-02-20T06:39:05;2.75;;;1.88;;
77040;SDS011;65974;42.664;23.264;2023-02-20T06:41:32;6.07;;;3.53;;
77040;SDS011;65974;42.664;23.264;2023-02-20T06:43:57;4.18;;;3.08;;
77040;SDS011;65974;42.664;23.264;2023-02-20T06:46:23;5.30;;;2.65;;
77040;SDS011;65974;42.664;23.264;2023-02-20T06:48:53;5.00;;;3.25;;
77040;SDS011;65974;42.664;23.264;2023-02-20T06:51:24;3.42;;;2.22;;
77040;SDS011;65974;42.664;23.264;2023-02-20T06:53:56;3.88;;;2.33;;
77040;SDS011;65974;42.664;23.264;2023-02-20T06:56:24;5.30;;;2.95;;
77040;SDS011;65974;42.664;23.264;2023-02-20T06:58:52;3.75;;;2.33;;
77040;SDS011;65974;42.664;23.264;2023-02-20T07:01:18;5.75;;;3.20;;
77040;SDS011;65974;42.664;23.264;2023-02-20T07:03:46;3.30;;;2.47;;
77040;SDS011;65974;42.664;23.264;2023-02-20T07:06:15;3.03;;;2.30;;
77040;SDS011;65974;42.664;23.264;2023-02-20T07:08:41;4.82;;;2.70;;
77040;SDS011;65974;42.664;23.264;2023-02-20T07:11:07;4.30;;;2.50;;
77040;SDS011;65974;42.664;23.264;2023-02-20T07:13:32;3.30;;;2.53;;
77040;SDS011;65974;42.664;23.264;2023-02-20T07:15:58;3.92;;;1.85;;
77040;SDS011;65974;42.664;23.264;2023-02-20T07:18:23;2.13;;;1.58;;
77040;SDS011;65974;42.664;23.264;2023-02-20T07:20:51;12.15;;;2.88;;
77040;SDS011;65974;42.664;23.264;2023-02-20T07:23:19;2.63;;;2.03;;
77040;SDS011;65974;42.664;23.264;2023-02-20T07:25:45;3.08;;;2.30;;
77040;SDS011;65974;42.664;23.264;2023-02-20T07:28:12;3.00;;;2.08;;
77040;SDS011;65974;42.664;23.264;2023-02-20T07:30:38;3.83;;;1.85;;
77040;SDS011;65974;42.664;23.264;2023-02-20T07:33:03;6.35;;;2.30;;
77040;SDS011;65974;42.664;23.264;2023-02-20T07:35:29;2.70;;;1.55;;
77040;SDS011;65974;42.664;23.264;2023-02-20T07:37:54;1.70;;;1.27;;
77040;SDS011;65974;42.664;23.264;2023-02-20T07:40:19;2.80;;;2.47;;
77040;SDS011;65974;42.664;23.264;2023-02-20T07:42:46;2.97;;;2.13;;
77040;SDS011;65974;42.664;23.264;2023-02-20T07:45:11;2.35;;;1.55;;
77040;SDS011;65974;42.664;23.264;2023-02-20T07:47:37;3.35;;;1.65;;
77040;SDS011;65974;42.664;23.264;2023-02-20T07:50:02;1.58;;;1.20;;
77040;SDS011;65974;42.664;23.264;2023-02-20T07:52:28;1.98;;;1.15;;
77040;SDS011;65974;42.664;23.264;2023-02-20T07:54:53;3.35;;;1.33;;
77040;SDS011;65974;42.664;23.264;2023-02-20T07:57:18;1.75;;;0.95;;
77040;SDS011;65974;42.664;23.264;2023-02-20T07:59:44;1.88;;;1.35;;
77040;SDS011;65974;42.664;23.264;2023-02-20T08:02:09;4.43;;;1.15;;
77040;SDS011;65974;42.664;23.264;2023-02-20T08:04:35;7.05;;;1.40;;
77040;SDS011;65974;42.664;23.264;2023-02-20T08:07:01;1.52;;;1.02;;
77040;SDS011;65974;42.664;23.264;2023-02-20T08:09:26;2.05;;;1.73;;
77040;SDS011;65974;42.664;23.264;2023-02-20T08:11:52;2.08;;;1.27;;
77040;SDS011;65974;42.664;23.264;2023-02-20T08:14:17;2.75;;;1.50;;
77040;SDS011;65974;42.664;23.264;2023-02-20T08:16:43;2.17;;;1.83;;
77040;SDS011;65974;42.664;23.264;2023-02-20T08:19:08;2.38;;;0.88;;
77040;SDS011;65974;42.664;23.264;2023-02-20T08:21:34;3.15;;;1.58;;
77040;SDS011;65974;42.664;23.264;2023-02-20T08:23:59;1.35;;;1.17;;
77040;SDS011;65974;42.664;23.264;2023-02-20T08:26:25;2.38;;;1.48;;
77040;SDS011;65974;42.664;23.264;2023-02-20T08:28:50;2.33;;;1.45;;
77040;SDS011;65974;42.664;23.264;2023-02-20T08:31:16;1.73;;;1.13;;
77040;SDS011;65974;42.664;23.264;2023-02-20T08:33:42;1.20;;;0.73;;
77040;SDS011;65974;42.664;23.264;2023-02-20T08:36:07;2.65;;;1.33;;
77040;SDS011;65974;42.664;23.264;2023-02-20T08:38:34;1.33;;;1.02;;
77040;SDS011;65974;42.664;23.264;2023-02-20T08:41:10;2.03;;;1.88;;
77040;SDS011;65974;42.664;23.264;2023-02-20T08:43:38;2.10;;;1.48;;
77040;SDS011;65974;42.664;23.264;2023-02-20T08:46:05;2.75;;;1.40;;
77040;SDS011;65974;42.664;23.264;2023-02-20T08:48:31;2.80;;;1.15;;
77040;SDS011;65974;42.664;23.264;2023-02-20T08:50:57;5.28;;;1.58;;
77040;SDS011;65974;42.664;23.264;2023-02-20T08:53:22;1.60;;;1.20;;
77040;SDS011;65974;42.664;23.264;2023-02-20T08:55:47;1.58;;;1.48;;
77040;SDS011;65974;42.664;23.264;2023-02-20T08:58:17;2.30;;;1.02;;
77040;SDS011;65974;42.664;23.264;2023-02-20T09:00:43;2.03;;;1.80;;
77040;SDS011;65974;42.664;23.264;2023-02-20T09:03:08;2.53;;;1.67;;
77040;SDS011;65974;42.664;23.264;2023-02-20T09:05:34;2.50;;;1.70;;
77040;SDS011;65974;42.664;23.264;2023-02-20T09:08:01;4.75;;;1.02;;
77040;SDS011;65974;42.664;23.264;2023-02-20T09:10:26;2.45;;;1.50;;
77040;SDS011;65974;42.664;23.264;2023-02-20T09:12:52;2.55;;;1.23;;
77040;SDS011;65974;42.664;23.264;2023-02-20T09:15:17;1.58;;;1.02;;
77040;SDS011;65974;42.664;23.264;2023-02-20T09:17:52;1.63;;;1.10;;
77040;SDS011;65974;42.664;23.264;2023-02-20T09:20:18;3.45;;;1.25;;
77040;SDS011;65974;42.664;23.264;2023-02-20T09:22:48;7.60;;;1.60;;
77040;SDS011;65974;42.664;23.264;2023-02-20T09:25:14;2.03;;;0.90;;
77040;SDS011;65974;42.664;23.264;2023-02-20T09:27:42;1.40;;;1.25;;
77040;SDS011;65974;42.664;23.264;2023-02-20T09:30:07;2.08;;;0.73;;
77040;SDS011;65974;42.664;23.264;2023-02-20T09:32:34;4.78;;;1.40;;
77040;SDS011;65974;42.664;23.264;2023-02-20T09:35:00;1.98;;;1.33;;
77040;SDS011;65974;42.664;23.264;2023-02-20T09:37:25;1.33;;;1.02;;
77040;SDS011;65974;42.664;23.264;2023-02-20T09:39:51;1.10;;;0.80;;
77040;SDS011;65974;42.664;23.264;2023-02-20T09:53:25;3.22;;;1.40;;
77040;SDS011;65974;42.664;23.264;2023-02-20T09:55:52;5.63;;;1.02;;
77040;SDS011;65974;42.664;23.264;2023-02-20T09:58:54;2.13;;;1.17;;
77040;SDS011;65974;42.664;23.264;2023-02-20T10:01:23;1.35;;;0.85;;
77040;SDS011;65974;42.664;23.264;2023-02-20T10:03:52;1.55;;;1.00;;
77040;SDS011;65974;42.664;23.264;2023-02-20T10:06:27;1.83;;;1.05;;
77040;SDS011;65974;42.664;23.264;2023-02-20T10:08:56;1.38;;;1.27;;
77040;SDS011;65974;42.664;23.264;2023-02-20T10:13:54;3.83;;;1.55;;
77040;SDS011;65974;42.664;23.264;2023-02-20T10:16:41;4.55;;;1.45;;
77040;SDS011;65974;42.664;23.264;2023-02-20T10:27:30;1.88;;;1.75;;
77040;SDS011;65974;42.664;23.264;2023-02-20T10:30:11;1.75;;;1.40;;
77040;SDS011;65974;42.664;23.264;2023-02-20T10:32:44;1.92;;;0.98;;
77040;SDS011;65974;42.664;23.264;2023-02-20T10:35:14;1.45;;;0.80;;
77040;SDS011;65974;42.664;23.264;2023-02-20T10:37:47;1.15;;;0.60;;
77040;SDS011;65974;42.664;23.264;2023-02-20T10:40:21;2.45;;;0.95;;
77040;SDS011;65974;42.664;23.264;2023-02-20T10:43:00;1.48;;;1.25;;
77040;SDS011;65974;42.664;23.264;2023-02-20T10:48:04;2.97;;;1.33;;
77040;SDS011;65974;42.664;23.264;2023-02-20T10:50:36;1.92;;;0.95;;
77040;SDS011;65974;42.664;23.264;2023-02-20T10:56:07;1.52;;;0.90;;
77040;SDS011;65974;42.664;23.264;2023-02-20T11:01:08;1.35;;;0.90;;
77040;SDS011;65974;42.664;23.264;2023-02-20T11:03:38;1.80;;;1.13;;
77040;SDS011;65974;42.664;23.264;2023-02-20T11:06:08;1.95;;;1.38;;
77040;SDS011;65974;42.664;23.264;2023-02-20T11:08:38;1.50;;;0.82;;
77040;SDS011;65974;42.664;23.264;2023-02-20T11:14:54;1.92;;;1.33;;
77040;SDS011;65974;42.664;23.264;2023-02-20T11:16:59;1.90;;;0.93;;
77040;SDS011;65974;42.664;23.264;2023-02-20T11:19:31;2.08;;;0.90;;
77040;SDS011;65974;42.664;23.264;2023-02-20T11:22:04;3.53;;;1.25;;
77040;SDS011;65974;42.664;23.264;2023-02-20T11:24:31;2.13;;;0.82;;
77040;SDS011;65974;42.664;23.264;2023-02-20T11:29:41;1.75;;;1.08;;
77040;SDS011;65974;42.664;23.264;2023-02-20T11:32:23;3.78;;;1.55;;
77040;SDS011;65974;42.664;23.264;2023-02-20T11:40:38;2.25;;;1.25;;
77040;SDS011;65974;42.664;23.264;2023-02-20T11:43:24;1.25;;;0.98;;
77040;SDS011;65974;42.664;23.264;2023-02-20T11:46:06;2.35;;;1.23;;
77040;SDS011;65974;42.664;23.264;2023-02-20T11:48:56;3.83;;;0.90;;
77040;SDS011;65974;42.664;23.264;2023-02-20T11:51:40;1.45;;;0.73;;
77040;SDS011;65974;42.664;23.264;2023-02-20T11:54:11;4.38;;;1.55;;
77040;SDS011;65974;42.664;23.264;2023-02-20T11:57:01;1.38;;;0.70;;
77040;SDS011;65974;42.664;23.264;2023-02-20T11:59:45;1.20;;;1.10;;
77040;SDS011;65974;42.664;23.264;2023-02-20T12:04:41;1.63;;;1.02;;
77040;SDS011;65974;42.664;23.264;2023-02-20T12:07:27;1.58;;;0.63;;
77040;SDS011;65974;42.664;23.264;2023-02-20T12:10:13;1.52;;;1.35;;
77040;SDS011;65974;42.664;23.264;2023-02-20T12:12:40;1.70;;;1.20;;
77040;SDS011;65974;42.664;23.264;2023-02-20T12:15:13;1.27;;;0.88;;
77040;SDS011;65974;42.664;23.264;2023-02-20T12:18:17;1.55;;;1.13;;
77040;SDS011;65974;42.664;23.264;2023-02-20T12:20:39;2.15;;;1.33;;
77040;SDS011;65974;42.664;23.264;2023-02-20T12:26:02;2.38;;;1.23;;
77040;SDS011;65974;42.664;23.264;2023-02-20T12:47:25;2.35;;;0.88;;
77040;SDS011;65974;42.664;23.264;2023-02-20T12:58:42;1.67;;;1.20;;
77040;SDS011;65974;42.664;23.264;2023-02-20T13:01:18;2.50;;;1.02;;
77040;SDS011;65974;42.664;23.264;2023-02-20T13:03:51;1.52;;;0.70;;
77040;SDS011;65974;42.664;23.264;2023-02-20T13:06:26;1.27;;;0.88;;
77040;SDS011;65974;42.664;23.264;2023-02-20T13:11:46;1.63;;;0.80;;
77040;SDS011;65974;42.664;23.264;2023-02-20T13:16:45;1.35;;;1.17;;
77040;SDS011;65974;42.664;23.264;2023-02-20T13:19:22;1.00;;;0.90;;
77040;SDS011;65974;42.664;23.264;2023-02-20T13:21:54;1.25;;;1.05;;
77040;SDS011;65974;42.664;23.264;2023-02-20T13:26:48;1.27;;;1.10;;
77040;SDS011;65974;42.664;23.264;2023-02-20T13:29:20;1.17;;;0.93;;
77040;SDS011;65974;42.664;23.264;2023-02-20T13:36:55;1.67;;;0.90;;
77040;SDS011;65974;42.664;23.264;2023-02-20T13:42:00;1.27;;;0.82;;
77040;SDS011;65974;42.664;23.264;2023-02-20T13:46:57;2.25;;;1.20;;
77040;SDS011;65974;42.664;23.264;2023-02-20T13:49:58;1.52;;;1.38;;
77040;SDS011;65974;42.664;23.264;2023-02-20T13:54:56;1.15;;;0.85;;
77040;SDS011;65974;42.664;23.264;2023-02-20T13:57:25;2.15;;;1.10;;
77040;SDS011;65974;42.664;23.264;2023-02-20T13:59:57;1.55;;;0.85;;
77040;SDS011;65974;42.664;23.264;2023-02-20T14:02:27;2.40;;;1.13;;
77040;SDS011;65974;42.664;23.264;2023-02-20T14:05:03;2.10;;;0.95;;
77040;SDS011;65974;42.664;23.264;2023-02-20T14:07:38;1.67;;;1.00;;
77040;SDS011;65974;42.664;23.264;2023-02-20T14:12:52;4.13;;;1.27;;
77040;SDS011;65974;42.664;23.264;2023-02-20T14:15:21;1.40;;;0.82;;
77040;SDS011;65974;42.664;23.264;2023-02-20T14:17:47;1.25;;;0.95;;
77040;SDS011;65974;42.664;23.264;2023-02-20T14:20:19;3.55;;;1.10;;
77040;SDS011;65974;42.664;23.264;2023-02-20T14:22:48;1.80;;;0.80;;
77040;SDS011;65974;42.664;23.264;2023-02-20T14:25:19;1.40;;;0.88;;
77040;SDS011;65974;42.664;23.264;2023-02-20T14:27:49;1.58;;;1.27;;
77040;SDS011;65974;42.664;23.264;2023-02-20T14:32:54;1.85;;;1.00;;
77040;SDS011;65974;42.664;23.264;2023-02-20T14:38:35;1.15;;;0.90;;
77040;SDS011;65974;42.664;23.264;2023-02-20T14:41:21;1.48;;;1.15;;
77040;SDS011;65974;42.664;23.264;2023-02-20T14:43:58;1.38;;;0.88;;
77040;SDS011;65974;42.664;23.264;2023-02-20T14:46:26;2.42;;;1.27;;
77040;SDS011;65974;42.664;23.264;2023-02-20T14:49:07;3.00;;;1.73;;
77040;SDS011;65974;42.664;23.264;2023-02-20T14:51:35;1.85;;;1.17;;
77040;SDS011;65974;42.664;23.264;2023-02-20T14:56:37;2.38;;;1.88;;
77040;SDS011;65974;42.664;23.264;2023-02-20T14:59:21;2.30;;;1.42;;
77040;SDS011;65974;42.664;23.264;2023-02-20T15:01:47;2.00;;;1.30;;
77040;SDS011;65974;42.664;23.264;2023-02-20T15:04:14;2.33;;;1.33;;
77040;SDS011;65974;42.664;23.264;2023-02-20T15:06:42;2.65;;;1.30;;
77040;SDS011;65974;42.664;23.264;2023-02-20T15:09:09;1.77;;;1.00;;
77040;SDS011;65974;42.664;23.264;2023-02-20T15:11:45;1.75;;;0.95;;
77040;SDS011;65974;42.664;23.264;2023-02-20T15:14:17;1.75;;;1.02;;
77040;SDS011;65974;42.664;23.264;2023-02-20T15:16:46;1.88;;;1.20;;
77040;SDS011;65974;42.664;23.264;2023-02-20T15:19:31;1.60;;;1.13;;
77040;SDS011;65974;42.664;23.264;2023-02-20T15:21:59;1.63;;;1.10;;
77040;SDS011;65974;42.664;23.264;2023-02-20T15:26:49;1.83;;;1.05;;
77040;SDS011;65974;42.664;23.264;2023-02-20T15:29:20;2.90;;;1.13;;
77040;SDS011;65974;42.664;23.264;2023-02-20T15:31:57;5.15;;;1.27;;
77040;SDS011;65974;42.664;23.264;2023-02-20T15:34:34;2.25;;;1.52;;
77040;SDS011;65974;42.664;23.264;2023-02-20T15:37:13;3.00;;;1.65;;
77040;SDS011;65974;42.664;23.264;2023-02-20T15:39:42;1.60;;;1.10;;
77040;SDS011;65974;42.664;23.264;2023-02-20T15:42:11;2.72;;;1.70;;
77040;SDS011;65974;42.664;23.264;2023-02-20T15:44:37;3.15;;;1.73;;
77040;SDS011;65974;42.664;23.264;2023-02-20T15:47:03;2.78;;;1.55;;
77040;SDS011;65974;42.664;23.264;2023-02-20T15:49:29;2.88;;;1.55;;
77040;SDS011;65974;42.664;23.264;2023-02-20T15:51:54;5.18;;;2.40;;
77040;SDS011;65974;42.664;23.264;2023-02-20T15:54:19;3.20;;;1.60;;
77040;SDS011;65974;42.664;23.264;2023-02-20T15:56:45;3.35;;;1.55;;
77040;SDS011;65974;42.664;23.264;2023-02-20T15:59:11;3.15;;;2.03;;
77040;SDS011;65974;42.664;23.264;2023-02-20T16:01:37;2.15;;;1.02;;
77040;SDS011;65974;42.664;23.264;2023-02-20T16:04:05;2.55;;;1.80;;
77040;SDS011;65974;42.664;23.264;2023-02-20T16:06:31;3.03;;;1.70;;
77040;SDS011;65974;42.664;23.264;2023-02-20T16:08:56;4.68;;;1.55;;
77040;SDS011;65974;42.664;23.264;2023-02-20T16:11:23;2.53;;;1.10;;
77040;SDS011;65974;42.664;23.264;2023-02-20T16:13:55;2.40;;;1.70;;
77040;SDS011;65974;42.664;23.264;2023-02-20T16:16:39;3.17;;;1.80;;
77040;SDS011;65974;42.664;23.264;2023-02-20T16:19:15;1.88;;;1.50;;
77040;SDS011;65974;42.664;23.264;2023-02-20T16:21:42;6.60;;;1.15;;
77040;SDS011;65974;42.664;23.264;2023-02-20T16:24:08;3.90;;;2.13;;
77040;SDS011;65974;42.664;23.264;2023-02-20T16:26:34;3.30;;;1.90;;
77040;SDS011;65974;42.664;23.264;2023-02-20T16:29:03;3.85;;;2.28;;
77040;SDS011;65974;42.664;23.264;2023-02-20T16:34:20;3.05;;;1.98;;
77040;SDS011;65974;42.664;23.264;2023-02-20T16:36:50;3.28;;;2.05;;
77040;SDS011;65974;42.664;23.264;2023-02-20T16:39:16;4.03;;;2.00;;
77040;SDS011;65974;42.664;23.264;2023-02-20T16:41:41;2.78;;;2.15;;
77040;SDS011;65974;42.664;23.264;2023-02-20T16:44:14;4.30;;;2.35;;
77040;SDS011;65974;42.664;23.264;2023-02-20T16:46:47;4.20;;;2.15;;
77040;SDS011;65974;42.664;23.264;2023-02-20T16:49:12;2.40;;;1.67;;
77040;SDS011;65974;42.664;23.264;2023-02-20T16:51:39;5.00;;;2.30;;
77040;SDS011;65974;42.664;23.264;2023-02-20T16:54:09;6.05;;;3.20;;
77040;SDS011;65974;42.664;23.264;2023-02-20T16:56:35;3.10;;;2.03;;
77040;SDS011;65974;42.664;23.264;2023-02-20T16:59:00;3.70;;;2.05;;
77040;SDS011;65974;42.664;23.264;2023-02-20T17:01:26;3.60;;;2.13;;
77040;SDS011;65974;42.664;23.264;2023-02-20T17:03:52;9.52;;;4.20;;
77040;SDS011;65974;42.664;23.264;2023-02-20T17:06:17;77.28;;;26.58;;
77040;SDS011;65974;42.664;23.264;2023-02-20T17:08:45;26.98;;;9.57;;
77040;SDS011;65974;42.664;23.264;2023-02-20T17:11:11;22.17;;;10.25;;
77040;SDS011;65974;42.664;23.264;2023-02-20T17:13:36;5.15;;;3.55;;
77040;SDS011;65974;42.664;23.264;2023-02-20T17:16:02;3.78;;;3.15;;
77040;SDS011;65974;42.664;23.264;2023-02-20T17:18:27;4.65;;;3.53;;
77040;SDS011;65974;42.664;23.264;2023-02-20T17:20:52;5.05;;;3.80;;